createdAt,value
2017-10-25T00:00:46.888Z,0
2017-10-25T00:01:56.874Z,0
2017-10-25T00:03:07.426Z,0
2017-10-25T00:04:17.749Z,0
2017-10-25T00:05:28.035Z,0
2017-10-25T00:06:38.340Z,0
2017-10-25T00:07:48.635Z,0
2017-10-25T00:08:59.174Z,0
2017-10-25T00:10:09.142Z,0
2017-10-25T00:11:19.436Z,0
2017-10-25T00:12:29.069Z,0
2017-10-25T00:13:39.395Z,0
2017-10-25T00:14:49.955Z,0
2017-10-25T00:16:00.246Z,0
2017-10-25T00:17:10.226Z,0
2017-10-25T00:18:20.540Z,0
2017-10-25T00:19:30.843Z,0
2017-10-25T00:20:41.453Z,0
2017-10-25T00:21:51.743Z,0
2017-10-25T00:23:02.046Z,0
2017-10-25T00:24:12.342Z,0
2017-10-25T00:25:22.641Z,0
2017-10-25T00:26:33.185Z,0
2017-10-25T00:27:43.143Z,0
2017-10-25T00:28:53.430Z,0
2017-10-25T00:30:03.723Z,0
2017-10-25T00:31:14.018Z,0
2017-10-25T00:32:24.561Z,0
2017-10-25T00:33:34.861Z,0
2017-10-25T00:34:45.156Z,0
2017-10-25T00:35:55.446Z,0
2017-10-25T00:37:05.765Z,0
2017-10-25T00:38:15.977Z,0
2017-10-25T00:39:26.272Z,0
2017-10-25T00:40:36.232Z,0
2017-10-25T00:41:46.202Z,0
2017-10-25T00:42:56.493Z,0
2017-10-25T00:44:07.362Z,0
2017-10-25T00:45:17.663Z,0
2017-10-25T00:46:27.967Z,0
2017-10-25T00:47:38.282Z,0
2017-10-25T00:48:48.493Z,0
2017-10-25T00:49:59.056Z,0
2017-10-25T00:51:09.350Z,0
2017-10-25T00:52:19.648Z,0
2017-10-25T00:53:29.627Z,0
2017-10-25T00:54:39.931Z,0
2017-10-25T00:55:50.502Z,0
2017-10-25T00:57:00.800Z,0
2017-10-25T00:58:11.089Z,0
2017-10-25T00:59:21.086Z,0
2017-10-25T01:00:31.049Z,0
2017-10-25T01:01:40.940Z,0
2017-10-25T01:02:50.907Z,0
2017-10-25T01:04:01.202Z,0
2017-10-25T01:05:11.496Z,0
2017-10-25T01:06:21.798Z,0
2017-10-25T01:07:32.342Z,0
2017-10-25T01:08:42.637Z,0
2017-10-25T01:09:52.933Z,0
2017-10-25T01:11:03.229Z,0
2017-10-25T01:12:13.214Z,0
2017-10-25T01:13:23.825Z,0
2017-10-25T01:14:34.124Z,0
2017-10-25T01:15:44.417Z,0
2017-10-25T01:16:54.385Z,0
2017-10-25T01:18:04.688Z,0
2017-10-25T01:19:14.900Z,0
2017-10-25T01:20:25.205Z,0
2017-10-25T01:21:35.178Z,0
2017-10-25T01:22:45.485Z,0
2017-10-25T01:23:55.476Z,0
2017-10-25T01:25:06.016Z,0
2017-10-25T01:26:16.326Z,0
2017-10-25T01:27:26.292Z,0
2017-10-25T01:28:36.599Z,0
2017-10-25T01:29:46.563Z,0
2017-10-25T01:30:56.808Z,0
2017-10-25T01:32:06.781Z,0
2017-10-25T01:33:17.057Z,0
2017-10-25T01:34:27.375Z,0
2017-10-25T01:35:37.348Z,0
2017-10-25T01:36:47.561Z,0
2017-10-25T01:37:57.226Z,0
2017-10-25T01:39:07.519Z,0
2017-10-25T01:40:17.830Z,0
2017-10-25T01:41:28.128Z,0
2017-10-25T01:42:38.344Z,0
2017-10-25T01:43:48.640Z,0
2017-10-25T01:44:58.922Z,0
2017-10-25T01:46:08.881Z,0
2017-10-25T01:47:19.169Z,0
2017-10-25T01:48:29.397Z,0
2017-10-25T01:49:39.351Z,0
2017-10-25T01:50:49.652Z,0
2017-10-25T01:51:59.944Z,0
2017-10-25T01:53:10.246Z,0
2017-10-25T01:54:20.804Z,0
2017-10-25T01:55:31.091Z,0
2017-10-25T01:56:41.386Z,0
2017-10-25T01:57:51.681Z,0
2017-10-25T01:59:01.969Z,0
2017-10-25T02:00:12.567Z,0
2017-10-25T02:01:22.555Z,0
2017-10-25T02:02:32.197Z,0
2017-10-25T02:03:42.494Z,0
2017-10-25T02:04:52.772Z,0
2017-10-25T02:06:02.994Z,0
2017-10-25T02:07:12.974Z,0
2017-10-25T02:08:22.619Z,0
2017-10-25T02:09:32.955Z,0
2017-10-25T02:10:42.937Z,0
2017-10-25T02:11:52.871Z,0
2017-10-25T02:13:02.850Z,0
2017-10-25T02:14:13.148Z,0
2017-10-25T02:15:23.433Z,0
2017-10-25T02:16:33.071Z,0
2017-10-25T02:17:43.615Z,0
2017-10-25T02:18:53.583Z,0
2017-10-25T02:20:03.543Z,0
2017-10-25T02:21:13.510Z,0
2017-10-25T02:22:23.823Z,0
2017-10-25T02:23:34.371Z,0
2017-10-25T02:24:44.348Z,0
2017-10-25T02:25:54.652Z,0
2017-10-25T02:27:04.960Z,0
2017-10-25T02:28:15.271Z,0
2017-10-25T02:29:25.825Z,0
2017-10-25T02:30:36.120Z,0
2017-10-25T02:31:46.437Z,0
2017-10-25T02:32:56.735Z,0
2017-10-25T02:34:07.039Z,0
2017-10-25T02:35:17.595Z,0
2017-10-25T02:36:27.567Z,0
2017-10-25T02:37:37.734Z,0
2017-10-25T02:38:48.035Z,0
2017-10-25T02:39:58.338Z,0
2017-10-25T02:41:08.885Z,0
2017-10-25T02:42:19.176Z,0
2017-10-25T02:43:29.471Z,0
2017-10-25T02:44:39.442Z,0
2017-10-25T02:45:49.420Z,0
2017-10-25T02:46:59.969Z,0
2017-10-25T02:48:10.280Z,0
2017-10-25T02:49:20.576Z,0
2017-10-25T02:50:30.544Z,0
2017-10-25T02:51:40.520Z,0
2017-10-25T02:52:50.793Z,0
2017-10-25T02:54:01.118Z,0
2017-10-25T02:55:11.422Z,0
2017-10-25T02:56:21.722Z,0
2017-10-25T02:57:32.027Z,0
2017-10-25T02:58:42.577Z,0
2017-10-25T02:59:52.574Z,0
2017-10-25T03:01:02.879Z,0
2017-10-25T03:02:13.185Z,0
2017-10-25T03:03:23.471Z,0
2017-10-25T03:04:34.017Z,0
2017-10-25T03:05:43.986Z,0
2017-10-25T03:06:54.278Z,0
2017-10-25T03:08:04.256Z,0
2017-10-25T03:09:14.555Z,0
2017-10-25T03:10:24.772Z,0
2017-10-25T03:11:34.738Z,0
2017-10-25T03:12:45.039Z,0
2017-10-25T03:13:55.326Z,0
2017-10-25T03:15:05.296Z,0
2017-10-25T03:16:15.513Z,0
2017-10-25T03:17:25.811Z,0
2017-10-25T03:18:36.131Z,0
2017-10-25T03:19:46.090Z,0
2017-10-25T03:20:56.402Z,0
2017-10-25T03:22:06.627Z,0
2017-10-25T03:23:16.593Z,0
2017-10-25T03:24:26.886Z,0
2017-10-25T03:25:37.190Z,0
2017-10-25T03:26:47.490Z,0
2017-10-25T03:27:58.042Z,0
2017-10-25T03:29:07.692Z,0
2017-10-25T03:30:17.672Z,0
2017-10-25T03:31:27.970Z,0
2017-10-25T03:32:38.254Z,0
2017-10-25T03:33:48.472Z,0
2017-10-25T03:34:58.460Z,0
2017-10-25T03:36:08.760Z,0
2017-10-25T03:37:19.058Z,0
2017-10-25T03:38:29.350Z,0
2017-10-25T03:39:39.894Z,0
2017-10-25T03:40:50.197Z,0
2017-10-25T03:42:00.511Z,0
2017-10-25T03:43:10.486Z,0
2017-10-25T03:44:20.764Z,0
2017-10-25T03:45:31.311Z,0
2017-10-25T03:46:41.609Z,0
2017-10-25T03:47:51.579Z,0
2017-10-25T03:49:01.900Z,0
2017-10-25T03:50:12.194Z,0
2017-10-25T03:51:22.733Z,0
2017-10-25T03:52:33.042Z,0
2017-10-25T03:53:43.581Z,0
2017-10-25T03:54:53.556Z,0
2017-10-25T03:56:03.861Z,0
2017-10-25T03:57:14.086Z,0
2017-10-25T03:58:24.057Z,0
2017-10-25T03:59:34.023Z,0
2017-10-25T04:00:44.332Z,0
2017-10-25T04:01:54.291Z,0
2017-10-25T04:03:04.830Z,0
2017-10-25T04:04:15.129Z,0
2017-10-25T04:05:25.144Z,0
2017-10-25T04:06:35.438Z,0
2017-10-25T04:07:45.733Z,0
2017-10-25T04:08:55.973Z,0
2017-10-25T04:10:05.939Z,0
2017-10-25T04:11:15.911Z,0
2017-10-25T04:12:26.201Z,0
2017-10-25T04:13:36.498Z,0
2017-10-25T04:14:47.042Z,0
2017-10-25T04:15:57.343Z,0
2017-10-25T04:17:07.654Z,0
2017-10-25T04:18:17.617Z,0
2017-10-25T04:19:27.909Z,0
2017-10-25T04:20:38.449Z,0
2017-10-25T04:21:48.420Z,0
2017-10-25T04:22:58.916Z,0
2017-10-25T04:24:09.204Z,0
2017-10-25T04:25:18.841Z,0
2017-10-25T04:26:29.385Z,0
2017-10-25T04:27:39.681Z,0
2017-10-25T04:28:49.651Z,0
2017-10-25T04:29:59.633Z,0
2017-10-25T04:31:09.940Z,0
2017-10-25T04:32:20.571Z,0
2017-10-25T04:33:30.541Z,0
2017-10-25T04:34:40.835Z,0
2017-10-25T04:35:51.139Z,0
2017-10-25T04:37:01.101Z,0
2017-10-25T04:38:11.328Z,0
2017-10-25T04:39:21.648Z,0
2017-10-25T04:40:31.951Z,0
2017-10-25T04:41:41.920Z,0
2017-10-25T04:42:52.218Z,0
2017-10-25T04:44:02.760Z,0
2017-10-25T04:45:12.743Z,0
2017-10-25T04:46:23.032Z,0
2017-10-25T04:47:33.004Z,0
2017-10-25T04:48:43.310Z,0
2017-10-25T04:49:53.854Z,0
2017-10-25T04:51:04.152Z,0
2017-10-25T04:52:14.448Z,0
2017-10-25T04:53:24.753Z,0
2017-10-25T04:54:35.046Z,0
2017-10-25T04:55:45.592Z,0
2017-10-25T04:56:55.244Z,0
2017-10-25T04:58:05.552Z,0
2017-10-25T04:59:15.873Z,0
2017-10-25T05:00:25.842Z,0
2017-10-25T05:01:36.388Z,0
2017-10-25T05:02:46.699Z,0
2017-10-25T05:03:56.023Z,0
2017-10-25T05:05:05.994Z,0
2017-10-25T05:06:16.004Z,0
2017-10-25T05:07:26.542Z,0
2017-10-25T05:08:36.521Z,0
2017-10-25T05:09:46.827Z,0
2017-10-25T05:10:57.132Z,0
2017-10-25T05:12:07.439Z,0
2017-10-25T05:13:17.986Z,0
2017-10-25T05:14:28.279Z,0
2017-10-25T05:15:38.583Z,0
2017-10-25T05:16:48.887Z,0
2017-10-25T05:17:59.173Z,0
2017-10-25T05:19:09.731Z,0
2017-10-25T05:20:20.034Z,0
2017-10-25T05:21:29.998Z,0
2017-10-25T05:22:40.314Z,0
2017-10-25T05:23:50.605Z,0
2017-10-25T05:25:01.147Z,0
2017-10-25T05:26:11.445Z,0
2017-10-25T05:27:21.094Z,0
2017-10-25T05:28:31.400Z,0
2017-10-25T05:29:41.385Z,0
2017-10-25T05:30:51.930Z,0
2017-10-25T05:32:01.902Z,0
2017-10-25T05:33:12.218Z,0
2017-10-25T05:34:22.521Z,0
2017-10-25T05:35:32.493Z,0
2017-10-25T05:36:43.042Z,0
2017-10-25T05:37:53.353Z,0
2017-10-25T05:39:03.334Z,0
2017-10-25T05:40:13.631Z,0
2017-10-25T05:41:23.920Z,0
2017-10-25T05:42:34.477Z,0
2017-10-25T05:43:44.796Z,0
2017-10-25T05:44:55.101Z,0
2017-10-25T05:46:05.406Z,0
2017-10-25T05:47:15.709Z,0
2017-10-25T05:48:26.254Z,0
2017-10-25T05:49:36.558Z,0
2017-10-25T05:50:46.859Z,0
2017-10-25T05:51:57.165Z,0
2017-10-25T05:53:07.455Z,0
2017-10-25T05:54:18.004Z,5
2017-10-25T05:55:28.319Z,5
2017-10-25T05:56:37.962Z,5
2017-10-25T05:57:48.253Z,5
2017-10-25T05:58:58.580Z,5
2017-10-25T06:00:09.146Z,5
2017-10-25T06:01:19.460Z,5
2017-10-25T06:02:29.433Z,5
2017-10-25T06:03:39.407Z,5
2017-10-25T06:04:49.706Z,5
2017-10-25T06:06:00.264Z,10
2017-10-25T06:07:10.239Z,10
2017-10-25T06:08:20.536Z,15
2017-10-25T06:09:30.826Z,10
2017-10-25T06:10:41.118Z,10
2017-10-25T06:11:51.339Z,10
2017-10-25T06:13:01.637Z,10
2017-10-25T06:14:11.944Z,10
2017-10-25T06:15:21.916Z,15
2017-10-25T06:16:32.218Z,20
2017-10-25T06:17:42.768Z,20
2017-10-25T06:18:53.084Z,20
2017-10-25T06:20:03.061Z,15
2017-10-25T06:21:13.375Z,15
2017-10-25T06:22:23.688Z,20
2017-10-25T06:23:34.280Z,25
2017-10-25T06:24:44.610Z,30
2017-10-25T06:25:54.592Z,30
2017-10-25T06:27:04.899Z,25
2017-10-25T06:28:15.203Z,25
2017-10-25T06:29:25.754Z,25
2017-10-25T06:30:35.716Z,25
2017-10-25T06:31:45.733Z,35
2017-10-25T06:32:56.024Z,45
2017-10-25T06:34:06.321Z,45
2017-10-25T06:35:16.911Z,45
2017-10-25T06:36:27.235Z,40
2017-10-25T06:37:37.216Z,35
2017-10-25T06:38:47.514Z,35
2017-10-25T06:39:57.805Z,45
2017-10-25T06:41:08.075Z,45
2017-10-25T06:42:18.058Z,55
2017-10-25T06:43:28.032Z,60
2017-10-25T06:44:38.342Z,65
2017-10-25T06:45:48.627Z,60
2017-10-25T06:46:58.860Z,45
2017-10-25T06:48:09.175Z,40
2017-10-25T06:49:19.162Z,45
2017-10-25T06:50:29.128Z,55
2017-10-25T06:51:39.092Z,50
2017-10-25T06:52:49.330Z,50
2017-10-25T06:53:59.295Z,45
2017-10-25T06:55:09.612Z,50
2017-10-25T06:56:19.578Z,50
2017-10-25T06:57:29.560Z,60
2017-10-25T06:58:40.115Z,60
2017-10-25T06:59:50.406Z,55
2017-10-25T07:01:00.379Z,60
2017-10-25T07:02:10.685Z,75
2017-10-25T07:03:21.010Z,85
2017-10-25T07:04:31.237Z,95
2017-10-25T07:05:41.541Z,95
2017-10-25T07:06:51.853Z,90
2017-10-25T07:08:02.158Z,95
2017-10-25T07:09:13.076Z,90
2017-10-25T07:10:23.346Z,85
2017-10-25T07:11:33.644Z,85
2017-10-25T07:12:43.608Z,90
2017-10-25T07:13:53.928Z,90
2017-10-25T07:15:04.243Z,90
2017-10-25T07:16:14.793Z,95
2017-10-25T07:17:25.093Z,110
2017-10-25T07:18:35.616Z,125
2017-10-25T07:19:45.916Z,150
2017-10-25T07:20:56.219Z,155
2017-10-25T07:22:06.771Z,155
2017-10-25T07:23:16.426Z,150
2017-10-25T07:24:26.730Z,145
2017-10-25T07:25:36.378Z,135
2017-10-25T07:26:46.669Z,135
2017-10-25T07:27:57.252Z,130
2017-10-25T07:29:07.577Z,120
2017-10-25T07:30:17.218Z,120
2017-10-25T07:31:27.208Z,125
2017-10-25T07:32:37.523Z,140
2017-10-25T07:33:48.097Z,150
2017-10-25T07:34:58.406Z,160
2017-10-25T07:36:08.724Z,175
2017-10-25T07:37:19.022Z,190
2017-10-25T07:38:29.318Z,205
2017-10-25T07:39:39.883Z,215
2017-10-25T07:40:50.212Z,225
2017-10-25T07:42:00.519Z,225
2017-10-25T07:43:10.830Z,240
2017-10-25T07:44:20.788Z,250
2017-10-25T07:45:31.340Z,260
2017-10-25T07:46:41.642Z,270
2017-10-25T07:47:51.936Z,280
2017-10-25T07:49:01.909Z,285
2017-10-25T07:50:12.228Z,295
2017-10-25T07:51:22.785Z,300
2017-10-25T07:52:33.097Z,305
2017-10-25T07:53:43.408Z,315
2017-10-25T07:54:53.697Z,315
2017-10-25T07:56:03.676Z,320
2017-10-25T07:57:13.892Z,325
2017-10-25T07:58:24.197Z,330
2017-10-25T07:59:34.170Z,335
2017-10-25T08:00:44.467Z,335
2017-10-25T08:01:54.778Z,335
2017-10-25T08:03:04.989Z,340
2017-10-25T08:04:15.306Z,350
2017-10-25T08:05:25.271Z,360
2017-10-25T08:06:35.589Z,370
2017-10-25T08:07:45.885Z,375
2017-10-25T08:08:55.790Z,380
2017-10-25T08:10:06.108Z,380
2017-10-25T08:11:16.429Z,375
2017-10-25T08:12:26.443Z,375
2017-10-25T08:13:36.729Z,370
2017-10-25T08:14:47.279Z,375
2017-10-25T08:15:57.581Z,375
2017-10-25T08:17:07.555Z,385
2017-10-25T08:18:17.541Z,390
2017-10-25T08:19:27.509Z,395
2017-10-25T08:20:38.057Z,400
2017-10-25T08:21:48.031Z,405
2017-10-25T08:22:58.329Z,400
2017-10-25T08:24:08.625Z,390
2017-10-25T08:25:18.920Z,385
2017-10-25T08:26:29.474Z,370
2017-10-25T08:27:39.792Z,360
2017-10-25T08:28:50.094Z,360
2017-10-25T08:30:00.067Z,350
2017-10-25T08:31:10.416Z,345
2017-10-25T08:32:20.639Z,330
2017-10-25T08:33:30.950Z,315
2017-10-25T08:34:40.917Z,305
2017-10-25T08:35:51.168Z,300
2017-10-25T08:37:01.983Z,305
2017-10-25T08:38:12.662Z,305
2017-10-25T08:39:23.001Z,310
2017-10-25T08:40:33.038Z,340
2017-10-25T08:41:43.428Z,360
2017-10-25T08:42:53.772Z,370
2017-10-25T08:44:04.004Z,395
2017-10-25T08:45:13.989Z,410
2017-10-25T08:46:24.034Z,425
2017-10-25T08:47:34.348Z,440
2017-10-25T08:48:44.677Z,455
2017-10-25T08:49:55.243Z,460
2017-10-25T08:51:05.221Z,455
2017-10-25T08:52:15.220Z,455
2017-10-25T08:53:25.520Z,445
2017-10-25T08:54:35.829Z,425
2017-10-25T08:55:46.400Z,415
2017-10-25T08:56:56.370Z,395
2017-10-25T08:58:06.701Z,390
2017-10-25T08:59:17.010Z,370
2017-10-25T09:00:27.338Z,355
2017-10-25T09:01:37.941Z,360
2017-10-25T09:02:48.253Z,370
2017-10-25T09:03:58.549Z,380
2017-10-25T09:05:08.846Z,390
2017-10-25T09:06:19.151Z,390
2017-10-25T09:07:29.766Z,400
2017-10-25T09:08:39.741Z,425
2017-10-25T09:09:50.050Z,435
2017-10-25T09:11:00.009Z,425
2017-10-25T09:12:10.313Z,395
2017-10-25T09:13:20.857Z,380
2017-10-25T09:14:30.824Z,380
2017-10-25T09:15:41.143Z,370
2017-10-25T09:16:51.113Z,375
2017-10-25T09:18:01.422Z,400
2017-10-25T09:19:11.980Z,435
2017-10-25T09:20:21.973Z,465
2017-10-25T09:21:31.959Z,500
2017-10-25T09:22:42.260Z,530
2017-10-25T09:23:52.604Z,525
2017-10-25T09:25:03.157Z,530
2017-10-25T09:26:13.453Z,530
2017-10-25T09:27:23.766Z,505
2017-10-25T09:28:33.743Z,510
2017-10-25T09:29:44.039Z,505
2017-10-25T09:30:54.587Z,550
2017-10-25T09:32:04.901Z,585
2017-10-25T09:33:14.889Z,630
2017-10-25T09:34:24.546Z,710
2017-10-25T09:35:34.857Z,820
2017-10-25T09:36:44.747Z,705
2017-10-25T09:37:54.722Z,895
2017-10-25T09:39:05.014Z,850
2017-10-25T09:40:15.304Z,1300
2017-10-25T09:41:25.606Z,1165
2017-10-25T09:42:36.164Z,1190
2017-10-25T09:43:46.142Z,1365
2017-10-25T09:44:56.455Z,1225
2017-10-25T09:46:06.761Z,1185
2017-10-25T09:47:17.065Z,1275
2017-10-25T09:48:27.618Z,1090
2017-10-25T09:49:37.913Z,1130
2017-10-25T09:50:47.883Z,905
2017-10-25T09:51:58.209Z,810
2017-10-25T09:53:08.181Z,710
2017-10-25T09:54:18.417Z,680
2017-10-25T09:55:28.738Z,635
2017-10-25T09:56:39.041Z,550
2017-10-25T09:57:49.013Z,525
2017-10-25T09:58:58.658Z,490
2017-10-25T10:00:08.954Z,490
2017-10-25T10:01:19.262Z,515
2017-10-25T10:02:29.235Z,535
2017-10-25T10:03:39.536Z,545
2017-10-25T10:04:49.841Z,510
2017-10-25T10:06:00.156Z,495
2017-10-25T10:07:10.139Z,485
2017-10-25T10:08:19.792Z,460
2017-10-25T10:09:30.112Z,460
2017-10-25T10:10:40.088Z,450
2017-10-25T10:11:50.676Z,460
2017-10-25T10:13:01.003Z,470
2017-10-25T10:14:11.318Z,465
2017-10-25T10:15:21.621Z,440
2017-10-25T10:16:31.923Z,440
2017-10-25T10:17:41.823Z,495
2017-10-25T10:18:51.453Z,455
2017-10-25T10:20:01.763Z,350
2017-10-25T10:21:12.081Z,365
2017-10-25T10:22:22.398Z,420
2017-10-25T10:23:32.963Z,455
2017-10-25T10:24:42.938Z,465
2017-10-25T10:25:53.252Z,485
2017-10-25T10:27:03.556Z,555
2017-10-25T10:28:13.854Z,655
2017-10-25T10:29:24.406Z,680
2017-10-25T10:30:34.411Z,595
2017-10-25T10:31:44.808Z,580
2017-10-25T10:32:55.124Z,595
2017-10-25T10:34:05.102Z,575
2017-10-25T10:35:15.333Z,565
2017-10-25T10:36:25.306Z,465
2017-10-25T10:37:35.614Z,420
2017-10-25T10:38:45.589Z,430
2017-10-25T10:39:55.878Z,470
2017-10-25T10:41:06.120Z,490
2017-10-25T10:42:16.418Z,500
2017-10-25T10:43:26.378Z,495
2017-10-25T10:44:36.678Z,470
2017-10-25T10:45:46.653Z,465
2017-10-25T10:46:56.877Z,445
2017-10-25T10:48:07.171Z,460
2017-10-25T10:49:16.827Z,490
2017-10-25T10:50:26.813Z,520
2017-10-25T10:51:36.810Z,530
2017-10-25T10:52:47.379Z,520
2017-10-25T10:53:57.352Z,500
2017-10-25T10:55:07.660Z,500
2017-10-25T10:56:17.316Z,490
2017-10-25T10:57:27.296Z,480
2017-10-25T10:58:37.842Z,445
2017-10-25T10:59:48.148Z,410
2017-10-25T11:00:58.458Z,400
2017-10-25T11:02:08.757Z,460
2017-10-25T11:03:19.048Z,510
2017-10-25T11:04:29.288Z,540
2017-10-25T11:05:39.592Z,560
2017-10-25T11:06:49.566Z,610
2017-10-25T11:07:59.878Z,655
2017-10-25T11:09:10.187Z,705
2017-10-25T11:10:20.740Z,760
2017-10-25T11:11:30.731Z,800
2017-10-25T11:12:41.030Z,1080
2017-10-25T11:13:51.335Z,1115
2017-10-25T11:15:01.634Z,2090
2017-10-25T11:16:12.257Z,1115
2017-10-25T11:17:22.350Z,1450
2017-10-25T11:18:32.665Z,2255
2017-10-25T11:19:42.961Z,2120
2017-10-25T11:20:52.934Z,2085
2017-10-25T11:22:03.213Z,2145
2017-10-25T11:23:13.176Z,1980
2017-10-25T11:24:23.473Z,1015
2017-10-25T11:25:33.792Z,1650
2017-10-25T11:26:43.764Z,1045
2017-10-25T11:27:54.313Z,1950
2017-10-25T11:29:04.631Z,920
2017-10-25T11:30:14.602Z,2170
2017-10-25T11:31:24.929Z,2355
2017-10-25T11:32:34.900Z,2025
2017-10-25T11:33:45.478Z,1915
2017-10-25T11:34:55.799Z,1290
2017-10-25T11:36:06.100Z,1305
2017-10-25T11:37:16.075Z,735
2017-10-25T11:38:26.371Z,1655
2017-10-25T11:39:36.601Z,820
2017-10-25T11:40:46.906Z,1845
2017-10-25T11:41:56.884Z,965
2017-10-25T11:43:06.864Z,1510
2017-10-25T11:44:16.846Z,605
2017-10-25T11:45:27.395Z,825
2017-10-25T11:46:37.690Z,980
2017-10-25T11:47:48.007Z,2410
2017-10-25T11:48:57.980Z,980
2017-10-25T11:50:07.976Z,1150
2017-10-25T11:51:17.870Z,1540
2017-10-25T11:52:28.190Z,535
2017-10-25T11:53:38.167Z,580
2017-10-25T11:54:48.479Z,480
2017-10-25T11:55:58.802Z,410
2017-10-25T11:57:09.044Z,415
2017-10-25T11:58:19.370Z,350
2017-10-25T11:59:29.675Z,330
2017-10-25T12:00:40.000Z,320
2017-10-25T12:01:50.292Z,370
2017-10-25T12:03:00.581Z,340
2017-10-25T12:04:10.888Z,210
2017-10-25T12:05:21.196Z,165
2017-10-25T12:06:30.862Z,135
2017-10-25T12:07:41.167Z,160
2017-10-25T12:08:51.089Z,150
2017-10-25T12:10:01.445Z,190
2017-10-25T12:11:11.755Z,225
2017-10-25T12:12:21.733Z,270
2017-10-25T12:13:31.717Z,345
2017-10-25T12:14:42.279Z,700
2017-10-25T12:15:52.259Z,510
2017-10-25T12:17:02.568Z,865
2017-10-25T12:18:12.544Z,405
2017-10-25T12:19:22.844Z,325
2017-10-25T12:20:33.061Z,295
2017-10-25T12:21:43.380Z,265
2017-10-25T12:22:53.362Z,245
2017-10-25T12:24:03.671Z,215
2017-10-25T12:25:13.982Z,210
2017-10-25T12:26:24.531Z,265
2017-10-25T12:27:34.831Z,505
2017-10-25T12:28:44.800Z,585
2017-10-25T12:29:55.099Z,735
2017-10-25T12:31:05.104Z,555
2017-10-25T12:32:15.657Z,460
2017-10-25T12:33:25.963Z,390
2017-10-25T12:34:35.931Z,430
2017-10-25T12:35:46.218Z,405
2017-10-25T12:36:56.529Z,390
2017-10-25T12:38:07.136Z,440
2017-10-25T12:39:17.426Z,420
2017-10-25T12:40:27.080Z,455
2017-10-25T12:41:37.379Z,370
2017-10-25T12:42:47.354Z,380
2017-10-25T12:43:57.931Z,355
2017-10-25T12:45:07.920Z,380
2017-10-25T12:46:18.244Z,425
2017-10-25T12:47:27.892Z,515
2017-10-25T12:48:38.184Z,515
2017-10-25T12:49:48.087Z,590
2017-10-25T12:50:58.396Z,725
2017-10-25T12:52:08.389Z,2155
2017-10-25T12:53:18.695Z,2240
2017-10-25T12:54:28.673Z,2215
2017-10-25T12:55:39.273Z,2170
2017-10-25T12:56:49.590Z,2235
2017-10-25T12:57:59.899Z,2115
2017-10-25T12:59:10.226Z,2070
2017-10-25T13:00:20.530Z,1150
2017-10-25T13:01:31.099Z,2000
2017-10-25T13:02:41.408Z,620
2017-10-25T13:03:51.705Z,555
2017-10-25T13:05:02.030Z,510
2017-10-25T13:06:12.006Z,465
2017-10-25T13:07:22.586Z,395
2017-10-25T13:08:32.890Z,350
2017-10-25T13:09:43.190Z,525
2017-10-25T13:10:53.491Z,355
2017-10-25T13:12:03.476Z,1255
2017-10-25T13:13:14.053Z,340
2017-10-25T13:14:24.374Z,345
2017-10-25T13:15:34.687Z,370
2017-10-25T13:16:44.998Z,520
2017-10-25T13:17:55.318Z,1270
2017-10-25T13:19:05.882Z,490
2017-10-25T13:20:16.186Z,470
2017-10-25T13:21:26.165Z,1355
2017-10-25T13:22:36.484Z,550
2017-10-25T13:23:46.787Z,785
2017-10-25T13:24:56.698Z,675
2017-10-25T13:26:06.679Z,450
2017-10-25T13:27:16.981Z,345
2017-10-25T13:28:27.290Z,300
2017-10-25T13:29:37.281Z,300
2017-10-25T13:30:47.855Z,275
2017-10-25T13:31:58.162Z,245
2017-10-25T13:33:08.471Z,225
2017-10-25T13:34:18.789Z,230
2017-10-25T13:35:29.096Z,240
2017-10-25T13:36:39.636Z,190
2017-10-25T13:37:49.602Z,185
2017-10-25T13:38:59.916Z,205
2017-10-25T13:40:09.905Z,195
2017-10-25T13:41:19.900Z,200
2017-10-25T13:42:30.453Z,225
2017-10-25T13:43:40.773Z,230
2017-10-25T13:44:51.081Z,240
2017-10-25T13:46:01.052Z,285
2017-10-25T13:47:11.362Z,355
2017-10-25T13:48:21.913Z,360
2017-10-25T13:49:31.562Z,360
2017-10-25T13:50:41.559Z,450
2017-10-25T13:51:51.536Z,785
2017-10-25T13:53:01.846Z,375
2017-10-25T13:54:12.076Z,355
2017-10-25T13:55:22.387Z,350
2017-10-25T13:56:32.683Z,365
2017-10-25T13:57:42.984Z,370
2017-10-25T13:58:53.292Z,370
2017-10-25T14:00:03.564Z,445
2017-10-25T14:01:13.867Z,430
2017-10-25T14:02:24.170Z,1055
2017-10-25T14:03:34.165Z,715
2017-10-25T14:04:44.462Z,590
2017-10-25T14:05:54.746Z,1080
2017-10-25T14:07:05.047Z,500
2017-10-25T14:08:15.022Z,425
2017-10-25T14:09:25.321Z,380
2017-10-25T14:10:35.305Z,420
2017-10-25T14:11:45.853Z,345
2017-10-25T14:12:56.163Z,380
2017-10-25T14:14:06.462Z,330
2017-10-25T14:15:16.764Z,315
2017-10-25T14:16:26.744Z,325
2017-10-25T14:17:37.324Z,315
2017-10-25T14:18:47.641Z,305
2017-10-25T14:19:57.953Z,280
2017-10-25T14:21:08.278Z,265
2017-10-25T14:22:18.567Z,235
2017-10-25T14:23:28.837Z,210
2017-10-25T14:24:38.836Z,195
2017-10-25T14:25:49.150Z,180
2017-10-25T14:26:59.499Z,160
2017-10-25T14:28:09.812Z,135
2017-10-25T14:29:19.700Z,110
2017-10-25T14:30:30.027Z,100
2017-10-25T14:31:40.009Z,95
2017-10-25T14:32:50.302Z,85
2017-10-25T14:34:00.612Z,85
2017-10-25T14:35:11.169Z,80
2017-10-25T14:36:21.473Z,80
2017-10-25T14:37:31.787Z,75
2017-10-25T14:38:41.763Z,70
2017-10-25T14:39:52.060Z,65
2017-10-25T14:41:02.612Z,65
2017-10-25T14:42:12.577Z,65
2017-10-25T14:43:22.875Z,60
2017-10-25T14:44:32.861Z,60
2017-10-25T14:45:42.829Z,55
2017-10-25T14:46:53.368Z,50
2017-10-25T14:48:03.665Z,45
2017-10-25T14:49:13.978Z,45
2017-10-25T14:50:24.280Z,50
2017-10-25T14:51:34.586Z,50
2017-10-25T14:52:45.201Z,45
2017-10-25T14:53:55.507Z,45
2017-10-25T14:55:05.486Z,45
2017-10-25T14:56:15.484Z,40
2017-10-25T14:57:25.451Z,40
2017-10-25T14:58:36.004Z,40
2017-10-25T14:59:45.990Z,35
2017-10-25T15:00:56.288Z,35
2017-10-25T15:02:06.268Z,35
2017-10-25T15:03:16.259Z,35
2017-10-25T15:04:26.494Z,40
2017-10-25T15:05:36.482Z,40
2017-10-25T15:06:46.780Z,40
2017-10-25T15:07:56.754Z,40
2017-10-25T15:09:06.717Z,35
2017-10-25T15:10:16.971Z,35
2017-10-25T15:11:27.279Z,40
2017-10-25T15:12:37.250Z,40
2017-10-25T15:13:47.220Z,40
2017-10-25T15:14:57.211Z,40
2017-10-25T15:16:07.772Z,35
2017-10-25T15:17:18.098Z,35
2017-10-25T15:18:28.416Z,35
2017-10-25T15:19:38.401Z,35
2017-10-25T15:20:48.703Z,35
2017-10-25T15:21:59.259Z,35
2017-10-25T15:23:09.589Z,35
2017-10-25T15:24:19.925Z,35
2017-10-25T15:25:29.917Z,30
2017-10-25T15:26:40.228Z,25
2017-10-25T15:27:50.449Z,20
2017-10-25T15:29:00.763Z,15
2017-10-25T15:30:11.066Z,10
2017-10-25T15:31:21.382Z,10
2017-10-25T15:32:31.680Z,10
2017-10-25T15:33:42.231Z,5
2017-10-25T15:34:52.529Z,5
2017-10-25T15:36:02.825Z,5
2017-10-25T15:37:12.805Z,5
2017-10-25T15:38:23.115Z,10
2017-10-25T15:39:33.722Z,5
2017-10-25T15:40:43.707Z,5
2017-10-25T15:41:54.024Z,5
2017-10-25T15:43:04.327Z,5
2017-10-25T15:44:14.639Z,5
2017-10-25T15:45:24.890Z,5
2017-10-25T15:46:35.183Z,5
2017-10-25T15:47:45.477Z,0
2017-10-25T15:48:55.460Z,0
2017-10-25T15:50:05.793Z,0
2017-10-25T15:51:16.342Z,0
2017-10-25T15:52:26.652Z,0
2017-10-25T15:53:36.958Z,0
2017-10-25T15:54:47.278Z,0
2017-10-25T15:55:57.580Z,0
2017-10-25T15:57:07.818Z,0
2017-10-25T15:58:17.799Z,0
2017-10-25T15:59:27.458Z,0
2017-10-25T16:00:37.749Z,0
2017-10-25T16:01:48.050Z,0
2017-10-25T16:02:58.601Z,0
2017-10-25T16:04:08.569Z,0
2017-10-25T16:05:18.549Z,0
2017-10-25T16:06:28.843Z,0
2017-10-25T16:07:39.169Z,0
2017-10-25T16:08:49.743Z,0
2017-10-25T16:10:00.080Z,0
2017-10-25T16:11:10.396Z,0
2017-10-25T16:12:20.376Z,0
2017-10-25T16:13:30.358Z,0
2017-10-25T16:14:40.594Z,0
2017-10-25T16:15:50.595Z,0
2017-10-25T16:17:00.575Z,0
2017-10-25T16:18:10.224Z,0
2017-10-25T16:19:20.531Z,0
2017-10-25T16:20:31.088Z,0
2017-10-25T16:21:41.062Z,0
2017-10-25T16:22:51.421Z,0
2017-10-25T16:24:01.064Z,0
2017-10-25T16:25:11.364Z,0
2017-10-25T16:26:21.943Z,0
2017-10-25T16:27:31.935Z,0
2017-10-25T16:28:41.917Z,0
2017-10-25T16:29:52.231Z,0
2017-10-25T16:31:02.206Z,0
2017-10-25T16:32:12.430Z,0
2017-10-25T16:33:22.411Z,0
2017-10-25T16:34:32.697Z,0
2017-10-25T16:35:42.990Z,0
2017-10-25T16:36:53.313Z,0
2017-10-25T16:38:03.877Z,0
2017-10-25T16:39:13.867Z,0